Time;durP1;ratioP1;P1;durP2;ratioP2;P2;SDS_P1;SDS_P2;PMS_P1;PMS_P2;Temp;Humidity;BMP_temperature;BMP_pressure;BME280_temperature;BME280_humidity;BME280_pressure;Samples;Min_cycle;Max_cycle;Signal;HPM_P1;HPM_P2
2022/09/29 00:00:35;;;;;;;5.65;4.45;;;;;;;9.57;49.38;99608.19;5031049;28;20052;-67
2022/09/29 00:03:03;;;;;;;6.32;4.60;;;;;;;9.56;49.73;99600.13;5022838;28;20110;-67
2022/09/29 00:05:31;;;;;;;6.57;4.85;;;;;;;9.56;49.65;99600.13;5037953;28;20456;-67
2022/09/29 00:07:59;;;;;;;6.35;4.72;;;;;;;9.56;49.46;99602.88;5049434;28;20517;-67
2022/09/29 00:10:27;;;;;;;5.85;4.50;;;;;;;9.54;49.60;99605.75;5046525;28;20049;-66
2022/09/29 00:12:55;;;;;;;5.53;4.35;;;;;;;9.55;49.79;99601.16;5052150;28;20047;-66
2022/09/29 00:15:24;;;;;;;6.18;4.68;;;;;;;9.55;49.91;99610.19;5046308;28;20052;-66
2022/09/29 00:17:51;;;;;;;6.75;4.40;;;;;;;9.53;49.70;99612.22;5046039;28;20432;-67
2022/09/29 00:20:39;;;;;;;5.78;4.50;;;;;;;9.53;49.83;99600.44;5043182;28;20102;-67
2022/09/29 00:23:07;;;;;;;5.90;4.25;;;;;;;9.53;49.71;99605.91;5028540;28;20033;-66
2022/09/29 00:25:35;;;;;;;5.35;4.15;;;;;;;9.52;49.63;99599.59;5048204;28;20048;-66
2022/09/29 00:28:03;;;;;;;5.53;4.35;;;;;;;9.50;49.60;99598.88;5045956;28;20044;-66
2022/09/29 00:30:32;;;;;;;5.57;4.28;;;;;;;9.51;49.31;99599.72;5048507;28;20049;-67
2022/09/29 00:33:00;;;;;;;7.30;4.40;;;;;;;9.49;49.68;99604.53;5050725;28;20052;-67
2022/09/29 00:35:28;;;;;;;5.78;4.18;;;;;;;9.48;49.49;99597.34;5050706;28;20055;-66
2022/09/29 00:37:56;;;;;;;6.32;4.32;;;;;;;9.46;49.52;99592.03;5053105;28;20041;-66
2022/09/29 00:40:23;;;;;;;5.40;3.85;;;;;;;9.43;49.70;99598.66;5047220;28;20051;-66
2022/09/29 00:42:51;;;;;;;6.47;4.53;;;;;;;9.43;49.42;99598.66;5049629;28;20163;-66
2022/09/29 00:45:21;;;;;;;5.78;4.50;;;;;;;9.44;49.51;99599.50;5043265;28;20044;-65
2022/09/29 00:48:00;;;;;;;6.57;4.65;;;;;;;9.43;49.67;99598.66;5044996;28;20037;-67
2022/09/29 00:50:39;;;;;;;6.00;4.43;;;;;;;9.42;49.67;99601.53;5046474;28;20037;-66
2022/09/29 00:53:11;;;;;;;5.65;4.40;;;;;;;9.39;49.54;99599.13;5049970;28;20055;-67
2022/09/29 00:55:46;;;;;;;6.03;4.40;;;;;;;9.38;49.80;99601.00;5049948;28;20064;-66
2022/09/29 00:58:23;;;;;;;6.68;4.53;;;;;;;9.37;49.78;99598.41;5049005;28;20048;-65
2022/09/29 01:00:51;;;;;;;6.65;4.38;;;;;;;9.34;49.50;99599.56;5043817;28;20086;-66
2022/09/29 01:03:23;;;;;;;4.88;3.83;;;;;;;9.35;49.45;99601.28;5047729;28;20532;-67
2022/09/29 01:05:57;;;;;;;6.13;4.17;;;;;;;9.32;49.56;99601.63;5044713;28;20049;-66
2022/09/29 01:08:31;;;;;;;6.65;4.50;;;;;;;9.32;49.47;99606.22;5047310;28;20065;-65
2022/09/29 01:11:02;;;;;;;5.70;4.57;;;;;;;9.32;49.63;99603.50;5041425;28;20288;-66
2022/09/29 01:13:31;;;;;;;5.43;4.15;;;;;;;9.29;49.72;99603.78;5021502;28;20041;-67
2022/09/29 01:15:59;;;;;;;5.88;4.13;;;;;;;9.27;49.37;99595.75;5043350;28;20598;-66
2022/09/29 01:18:29;;;;;;;5.97;4.15;;;;;;;9.28;49.29;99605.66;5055295;28;20370;-67
2022/09/29 01:21:06;;;;;;;5.40;4.60;;;;;;;9.27;49.54;99600.34;5047430;28;20444;-66
2022/09/29 01:24:13;;;;;;;6.93;4.15;;;;;;;9.22;49.89;99599.97;5042723;28;20703;-66
2022/09/29 01:27:07;;;;;;;4.78;3.85;;;;;;;9.19;49.90;99600.28;5041256;28;20465;-65
2022/09/29 01:30:08;;;;;;;5.47;4.03;;;;;;;9.17;49.92;99602.28;5045791;28;20406;-67
2022/09/29 01:33:14;;;;;;;5.70;4.20;;;;;;;9.17;49.54;99608.63;5053953;28;20049;-67
2022/09/29 01:35:52;;;;;;;6.15;3.75;;;;;;;9.15;49.75;99610.66;5023178;28;20100;-67
2022/09/29 01:38:44;;;;;;;6.18;4.10;;;;;;;9.15;49.71;99612.53;5048900;28;20052;-66
2022/09/29 01:41:18;;;;;;;6.05;4.22;;;;;;;9.09;49.48;99603.94;5028149;28;20044;-66
2022/09/29 01:43:50;;;;;;;7.32;4.00;;;;;;;9.10;49.45;99611.09;5051046;28;20037;-66
2022/09/29 01:46:24;;;;;;;5.38;4.13;;;;;;;9.06;49.64;99609.72;5045255;28;20048;-66
2022/09/29 01:48:55;;;;;;;7.13;4.28;;;;;;;9.07;49.04;99614.16;5043134;28;20041;-66
2022/09/29 01:51:29;;;;;;;5.57;4.40;;;;;;;9.06;49.15;99612.44;5049857;28;20049;-66
2022/09/29 01:54:03;;;;;;;6.38;4.28;;;;;;;9.05;49.16;99612.59;5048094;28;20045;-67
2022/09/29 01:56:36;;;;;;;5.68;3.92;;;;;;;9.04;49.55;99613.59;5048155;28;20057;-66
2022/09/29 01:59:10;;;;;;;6.35;3.95;;;;;;;9.00;49.44;99607.59;5028666;28;20045;-66
2022/09/29 02:01:43;;;;;;;5.45;4.00;;;;;;;9.00;49.27;99610.31;5047767;28;20056;-66
2022/09/29 02:04:13;;;;;;;;;;;;;;;8.74;50.06;99613.97;5049269;28;20048;-66
2022/09/29 02:06:49;;;;;;;5.10;3.40;;;;;;;8.95;49.55;99611.81;5047757;28;19928;-66
2022/09/29 02:09:22;;;;;;;6.63;4.22;;;;;;;8.94;49.33;99610.94;5044720;28;20045;-66
2022/09/29 02:11:52;;;;;;;6.22;3.95;;;;;;;8.94;49.01;99615.53;5041602;28;20055;-66
2022/09/29 02:14:23;;;;;;;5.93;3.95;;;;;;;8.94;49.51;99623.72;5043437;28;20048;-66
2022/09/29 02:16:57;;;;;;;5.88;4.30;;;;;;;8.93;49.29;99613.81;5029176;28;20460;-67
2022/09/29 02:19:29;;;;;;;6.55;4.15;;;;;;;8.90;49.57;99617.75;5045628;28;20425;-67
2022/09/29 02:21:58;;;;;;;6.57;3.97;;;;;;;8.90;49.40;99622.34;5053651;28;20049;-67
2022/09/29 02:24:27;;;;;;;5.95;3.83;;;;;;;8.87;49.14;99619.91;5043426;28;20669;-67
2022/09/29 02:26:55;;;;;;;5.45;3.90;;;;;;;8.85;49.27;99617.31;5043620;28;20083;-66
2022/09/29 02:29:23;;;;;;;5.60;4.13;;;;;;;8.85;49.58;99622.78;5046483;28;20440;-67
2022/09/29 02:31:51;;;;;;;7.03;4.20;;;;;;;8.83;49.36;99626.69;5045219;28;20052;-67
2022/09/29 02:34:22;;;;;;;8.52;4.22;;;;;;;8.83;49.21;99622.09;5038368;28;20051;-66
2022/09/29 02:36:58;;;;;;;6.22;4.25;;;;;;;8.83;49.48;99633.00;5044718;28;20091;-66
2022/09/29 02:39:39;;;;;;;5.75;4.47;;;;;;;8.80;49.64;99621.53;5043438;28;20078;-66
2022/09/29 02:42:18;;;;;;;5.70;4.20;;;;;;;8.79;49.97;99628.00;5044463;28;20135;-67
2022/09/29 02:45:10;;;;;;;6.25;4.30;;;;;;;8.78;49.96;99620.81;5021792;28;20073;-67
2022/09/29 02:47:51;;;;;;;5.15;3.88;;;;;;;8.76;49.75;99620.09;5039144;28;20501;-67
2022/09/29 02:50:39;;;;;;;5.78;4.20;;;;;;;8.74;49.80;99622.16;5037799;28;20168;-67
2022/09/29 02:53:20;;;;;;;5.90;4.00;;;;;;;8.73;49.36;99617.69;5034570;28;20140;-67
2022/09/29 02:55:57;;;;;;;5.95;3.92;;;;;;;8.71;49.73;99617.84;5051942;28;20044;-67
2022/09/29 02:58:32;;;;;;;6.05;4.28;;;;;;;8.69;49.21;99620.72;5042494;28;20063;-67
2022/09/29 03:01:01;;;;;;;5.97;3.85;;;;;;;8.65;49.56;99616.59;5043770;28;20493;-67
2022/09/29 03:03:28;;;;;;;6.03;3.90;;;;;;;8.64;49.07;99614.03;5046412;28;20481;-67
2022/09/29 03:05:57;;;;;;;5.60;4.03;;;;;;;8.65;49.39;99618.47;5048753;28;20105;-67
2022/09/29 03:08:24;;;;;;;5.93;3.60;;;;;;;8.62;49.41;99614.16;5051693;28;20059;-66
2022/09/29 03:10:54;;;;;;;5.05;3.78;;;;;;;8.62;49.41;99619.63;5043290;28;20514;-67
2022/09/29 03:13:22;;;;;;;4.97;3.90;;;;;;;8.60;49.35;99612.59;5045782;28;20041;-68
2022/09/29 03:15:49;;;;;;;5.85;3.90;;;;;;;8.59;49.33;99616.31;5043105;28;20049;-67
2022/09/29 03:18:17;;;;;;;6.35;3.97;;;;;;;8.58;49.03;99620.94;5022237;28;20047;-67
2022/09/29 03:20:45;;;;;;;5.45;4.03;;;;;;;8.56;49.40;99622.97;5045661;28;20041;-67
2022/09/29 03:23:13;;;;;;;5.88;4.40;;;;;;;8.56;49.50;99624.84;5037396;28;20111;-66
2022/09/29 03:25:41;;;;;;;5.38;3.85;;;;;;;8.55;49.39;99623.97;5027581;28;20479;-67
2022/09/29 03:28:10;;;;;;;5.13;3.95;;;;;;;8.55;49.20;99623.09;5041623;28;20053;-66
2022/09/29 03:30:39;;;;;;;5.68;4.20;;;;;;;8.53;49.54;99627.84;5043062;28;20041;-67
2022/09/29 03:33:06;;;;;;;5.90;4.05;;;;;;;8.50;49.46;99620.84;5045611;28;20044;-67
2022/09/29 03:35:34;;;;;;;5.28;4.07;;;;;;;8.50;49.16;99620.84;5026153;28;20410;-67
2022/09/29 03:38:02;;;;;;;5.45;4.00;;;;;;;8.49;49.30;99624.59;5050498;28;20501;-67
2022/09/29 03:40:30;;;;;;;5.53;3.97;;;;;;;8.48;49.36;99622.88;5049654;28;20502;-67
2022/09/29 03:42:58;;;;;;;5.07;3.88;;;;;;;8.48;49.40;99622.88;5040641;28;20219;-66
2022/09/29 03:45:27;;;;;;;5.95;4.00;;;;;;;8.47;49.28;99632.03;5045919;28;20128;-66
2022/09/29 03:47:55;;;;;;;5.72;4.13;;;;;;;8.46;49.20;99624.88;5045134;28;20059;-67
2022/09/29 03:50:22;;;;;;;4.70;3.53;;;;;;;8.44;49.50;99617.84;5052870;28;20053;-67
2022/09/29 03:52:50;;;;;;;5.68;3.90;;;;;;;8.44;49.22;99623.28;5051520;28;20453;-67
2022/09/29 03:55:18;;;;;;;4.95;3.75;;;;;;;8.43;49.28;99622.44;5050891;28;20072;-66
2022/09/29 03:57:46;;;;;;;6.22;4.68;;;;;;;8.42;49.33;99634.38;5048071;28;20042;-67
2022/09/29 04:00:15;;;;;;;5.55;3.88;;;;;;;8.41;49.03;99627.22;5052816;28;20045;-67
2022/09/29 04:02:44;;;;;;;5.82;3.97;;;;;;;8.40;49.05;99632.81;5047030;28;20095;-67
2022/09/29 04:05:12;;;;;;;5.20;3.88;;;;;;;8.38;49.10;99632.94;5046946;28;20371;-66
2022/09/29 04:07:40;;;;;;;6.35;4.00;;;;;;;8.36;49.30;99637.69;5049436;28;20045;-68
2022/09/29 04:10:09;;;;;;;5.25;4.00;;;;;;;8.35;49.32;99633.25;5050774;28;20106;-67
2022/09/29 04:12:36;;;;;;;5.93;4.10;;;;;;;8.33;49.43;99633.41;5048528;28;20044;-67
2022/09/29 04:15:05;;;;;;;5.63;4.47;;;;;;;8.32;49.22;99639.00;5052475;28;20041;-67
2022/09/29 04:17:33;;;;;;;6.65;4.13;;;;;;;8.29;49.49;99637.44;5050892;28;20045;-66
2022/09/29 04:20:02;;;;;;;6.03;4.03;;;;;;;8.32;49.33;99642.59;5045162;28;20079;-66
2022/09/29 04:22:30;;;;;;;6.60;4.43;;;;;;;8.27;49.33;99646.75;5045651;28;20054;-67
2022/09/29 04:24:58;;;;;;;6.25;4.32;;;;;;;8.27;48.94;99644.03;5053516;28;20065;-67
2022/09/29 04:27:26;;;;;;;5.03;3.88;;;;;;;8.25;49.55;99649.66;5043668;28;20052;-67
2022/09/29 04:29:54;;;;;;;5.85;4.22;;;;;;;8.24;49.20;99655.25;5054719;28;20489;-66
2022/09/29 04:32:23;;;;;;;5.60;3.95;;;;;;;8.23;49.65;99653.53;5057510;28;20114;-66
2022/09/29 04:34:51;;;;;;;6.15;4.03;;;;;;;8.23;49.21;99658.97;5046871;28;20059;-67
2022/09/29 04:37:20;;;;;;;6.45;4.40;;;;;;;8.23;49.23;99656.25;5049018;28;20497;-67
2022/09/29 04:39:48;;;;;;;5.47;3.92;;;;;;;8.20;49.42;99660.13;5046793;28;20056;-67
2022/09/29 04:42:16;;;;;;;6.60;4.47;;;;;;;8.20;49.23;99665.56;5046309;28;20049;-67
2022/09/29 04:44:44;;;;;;;6.00;4.28;;;;;;;8.20;49.49;99665.56;5050621;28;20036;-67
2022/09/29 04:47:12;;;;;;;6.30;4.15;;;;;;;8.19;49.56;99661.13;5046972;28;20041;-67
2022/09/29 04:49:40;;;;;;;5.20;3.70;;;;;;;8.18;49.32;99664.84;5042142;28;20515;-67
2022/09/29 04:52:14;;;;;;;5.72;3.92;;;;;;;8.19;49.59;99663.84;5050832;28;20131;-67
2022/09/29 04:54:43;;;;;;;5.50;3.95;;;;;;;8.17;49.51;99674.06;5024301;28;20072;-69
2022/09/29 04:57:12;;;;;;;5.45;4.03;;;;;;;8.17;49.29;99673.22;5046381;28;20056;-67
2022/09/29 04:59:40;;;;;;;6.85;4.63;;;;;;;8.13;49.15;99671.72;5048313;28;20044;-70
2022/09/29 05:02:08;;;;;;;7.13;4.53;;;;;;;8.12;49.12;99670.00;5046112;28;20083;-69
2022/09/29 05:04:36;;;;;;;6.35;4.70;;;;;;;8.08;49.46;99672.19;5050152;28;20037;-69
2022/09/29 05:07:03;;;;;;;5.43;3.92;;;;;;;8.06;49.28;99667.88;5049566;28;20045;-69
2022/09/29 05:09:31;;;;;;;6.35;4.20;;;;;;;8.04;49.11;99669.88;5049641;28;20051;-68
2022/09/29 05:12:02;;;;;;;8.25;4.05;;;;;;;8.02;49.40;99674.63;5040589;28;20107;-69
2022/09/29 05:14:30;;;;;;;5.45;4.32;;;;;;;7.99;49.26;99674.94;5038088;28;20763;-70
2022/09/29 05:16:58;;;;;;;7.10;4.70;;;;;;;7.97;49.27;99677.78;5049886;28;20080;-70
2022/09/29 05:19:26;;;;;;;6.93;4.70;;;;;;;7.94;49.49;99680.81;5044780;28;20389;-70
2022/09/29 05:21:54;;;;;;;7.03;5.00;;;;;;;7.90;49.48;99682.97;5034089;28;20515;-69
2022/09/29 05:24:22;;;;;;;5.78;4.35;;;;;;;7.89;49.07;99689.44;5028708;28;20065;-69
2022/09/29 05:26:50;;;;;;;7.85;4.75;;;;;;;7.87;49.24;99688.72;5052224;28;20041;-69
2022/09/29 05:29:26;;;;;;;6.07;4.45;;;;;;;7.87;49.59;99696.88;5049687;28;20041;-70
2022/09/29 05:31:54;;;;;;;5.95;4.82;;;;;;;7.85;49.35;99696.16;5048018;28;20106;-70
2022/09/29 05:34:22;;;;;;;7.55;4.68;;;;;;;7.85;49.25;99695.28;5046207;28;20040;-70
2022/09/29 05:36:49;;;;;;;6.55;4.90;;;;;;;7.83;49.39;99702.78;5043573;28;20080;-70
2022/09/29 05:39:19;;;;;;;5.97;4.60;;;;;;;7.83;49.46;99697.34;5050261;28;20064;-68
2022/09/29 05:41:48;;;;;;;6.93;4.70;;;;;;;7.83;49.48;99706.34;5042913;28;20742;-71
2022/09/29 05:44:16;;;;;;;5.90;4.38;;;;;;;7.83;49.35;99708.22;5026417;28;20067;-68
2022/09/29 05:46:45;;;;;;;5.93;4.78;;;;;;;7.84;49.48;99709.94;5034315;28;20406;-70
2022/09/29 05:49:13;;;;;;;6.95;4.45;;;;;;;7.82;49.18;99715.53;5031052;28;20046;-70
2022/09/29 05:51:41;;;;;;;6.57;4.90;;;;;;;7.82;49.49;99710.09;5041460;28;20452;-70
2022/09/29 05:54:09;;;;;;;6.07;4.80;;;;;;;7.81;49.46;99718.41;5042086;28;20041;-67
2022/09/29 05:56:37;;;;;;;6.72;4.65;;;;;;;7.81;49.33;99721.13;5039672;28;20071;-67
2022/09/29 05:59:11;;;;;;;8.40;5.35;;;;;;;7.80;49.28;99720.25;5044486;28;20062;-67
2022/09/29 06:01:39;;;;;;;6.22;4.90;;;;;;;7.80;49.26;99719.41;5031090;28;20037;-67
2022/09/29 06:04:08;;;;;;;7.47;4.93;;;;;;;7.82;49.40;99717.41;5047109;28;20036;-67
2022/09/29 06:06:38;;;;;;;7.28;5.13;;;;;;;7.79;49.27;99721.25;5035578;28;20046;-67
2022/09/29 06:09:07;;;;;;;6.80;4.82;;;;;;;7.80;49.49;99720.25;5041067;28;20502;-66
2022/09/29 06:11:35;;;;;;;6.05;4.68;;;;;;;7.80;49.72;99724.84;5035072;28;20049;-69
2022/09/29 06:14:03;;;;;;;6.68;4.50;;;;;;;7.80;49.67;99725.72;5040071;28;20041;-66
2022/09/29 06:16:32;;;;;;;5.97;4.63;;;;;;;7.81;49.68;99723.84;5034088;28;20045;-71
2022/09/29 06:19:01;;;;;;;7.47;5.28;;;;;;;7.80;49.66;99724.84;5041931;28;20045;-68
2022/09/29 06:21:32;;;;;;;6.95;4.75;;;;;;;7.82;50.00;99720.13;5046531;28;20444;-68
2022/09/29 06:24:01;;;;;;;6.03;4.72;;;;;;;7.80;49.66;99730.28;5043519;28;20079;-68
2022/09/29 06:26:30;;;;;;;6.32;5.07;;;;;;;7.80;49.99;99725.72;5043448;28;20037;-70
2022/09/29 06:28:58;;;;;;;8.25;5.68;;;;;;;7.81;49.98;99732.00;5044438;28;20037;-70
2022/09/29 06:31:28;;;;;;;6.95;5.00;;;;;;;7.85;50.44;99733.44;5037200;28;20923;-70
2022/09/29 06:33:57;;;;;;;7.55;5.10;;;;;;;7.88;51.08;99739.47;5037995;28;20060;-70
2022/09/29 06:39:17;;;;;;;7.47;5.05;;;;;;;8.05;52.16;99742.47;5053117;28;20052;-69
2022/09/29 06:41:50;;;;;;;6.93;4.70;;;;;;;8.19;52.72;99750.22;5043656;28;20068;-69
2022/09/29 06:44:19;;;;;;;6.97;5.10;;;;;;;8.38;53.38;99747.44;5048131;28;20463;-67
2022/09/29 06:46:47;;;;;;;7.68;4.82;;;;;;;8.60;53.80;99744.34;5041938;28;20560;-67
2022/09/29 06:49:15;;;;;;;6.53;4.78;;;;;;;8.85;54.06;99748.28;5045439;28;20052;-69
2022/09/29 06:51:44;;;;;;;5.82;4.45;;;;;;;9.15;54.11;99738.09;5045320;28;20064;-69
2022/09/29 06:54:16;;;;;;;7.47;4.78;;;;;;;9.47;53.67;99743.97;5038558;28;20124;-68
2022/09/29 06:56:47;;;;;;;6.15;4.47;;;;;;;9.81;54.15;99745.00;5043820;28;20068;-70
2022/09/29 06:59:17;;;;;;;5.68;4.60;;;;;;;10.15;53.73;99747.81;5044661;28;20064;-70
2022/09/29 07:01:48;;;;;;;6.28;4.80;;;;;;;10.50;53.13;99748.75;5038752;28;20399;-68
2022/09/29 07:04:18;;;;;;;7.38;4.75;;;;;;;10.85;53.39;99748.66;5043299;28;20048;-71
2022/09/29 07:06:47;;;;;;;6.72;4.53;;;;;;;11.22;52.48;99744.75;5042617;28;20127;-69
2022/09/29 07:09:16;;;;;;;6.35;4.30;;;;;;;11.56;52.16;99750.97;5043432;28;20408;-71
2022/09/29 07:11:46;;;;;;;5.95;4.38;;;;;;;11.89;51.03;99751.94;5037027;28;20057;-68
2022/09/29 07:14:14;;;;;;;5.72;4.22;;;;;;;12.20;50.81;99754.03;5048108;28;20049;-70
2022/09/29 07:16:42;;;;;;;6.07;4.45;;;;;;;12.50;50.51;99761.53;5042455;28;20096;-70
2022/09/29 07:19:10;;;;;;;6.22;4.00;;;;;;;12.79;50.11;99750.00;5040752;28;20470;-68
2022/09/29 07:21:38;;;;;;;7.40;4.95;;;;;;;13.05;49.78;99764.34;5040389;28;20087;-68
2022/09/29 07:24:06;;;;;;;4.47;3.35;;;;;;;13.33;48.82;99758.41;5026461;28;20056;-69
2022/09/29 07:26:36;;;;;;;6.03;3.60;;;;;;;13.60;48.08;99752.47;5041727;28;20063;-69
2022/09/29 07:29:04;;;;;;;5.72;4.20;;;;;;;13.80;47.91;99750.94;5044450;28;20041;-69
2022/09/29 07:31:32;;;;;;;6.93;4.32;;;;;;;14.00;46.85;99757.69;5042050;28;20118;-70
2022/09/29 07:34:15;;;;;;;5.63;4.18;;;;;;;14.18;47.48;99760.13;5045121;28;20045;-65
2022/09/29 07:36:42;;;;;;;5.90;3.50;;;;;;;14.38;46.71;99760.47;5042634;28;20536;-70
2022/09/29 07:39:10;;;;;;;4.95;3.70;;;;;;;14.58;46.23;99771.84;5039530;28;20119;-69
2022/09/29 07:41:40;;;;;;;5.20;3.75;;;;;;;14.75;45.52;99768.75;5031901;28;20614;-69
2022/09/29 07:44:07;;;;;;;5.93;4.18;;;;;;;14.89;45.13;99768.94;5025374;28;20059;-69
2022/09/29 07:46:35;;;;;;;6.88;4.20;;;;;;;15.03;45.45;99765.31;5045977;28;20406;-69
2022/09/29 07:49:04;;;;;;;5.30;4.20;;;;;;;15.14;44.91;99762.97;5028392;28;20052;-69
2022/09/29 07:51:32;;;;;;;4.97;3.80;;;;;;;15.25;44.33;99778.19;5040633;28;20128;-70
2022/09/29 07:54:02;;;;;;;5.57;3.60;;;;;;;15.37;43.71;99770.28;5045487;28;20037;-69
2022/09/29 07:56:31;;;;;;;5.25;3.90;;;;;;;15.42;43.19;99767.84;5029674;28;20041;-70
2022/09/29 07:59:03;;;;;;;4.38;3.53;;;;;;;15.51;42.73;99777.69;5028366;28;20489;-69
2022/09/29 08:01:31;;;;;;;5.15;3.85;;;;;;;15.53;42.24;99775.59;5042888;28;20084;-70
2022/09/29 08:04:00;;;;;;;4.65;3.35;;;;;;;15.56;41.90;99775.22;5046393;28;20470;-70
2022/09/29 08:06:29;;;;;;;5.30;4.25;;;;;;;15.55;41.91;99779.00;5032818;28;20438;-69
2022/09/29 08:08:57;;;;;;;4.82;3.65;;;;;;;15.51;41.69;99789.56;5046404;28;20045;-69
2022/09/29 08:11:32;;;;;;;5.18;4.00;;;;;;;15.44;41.40;99794.13;5029869;28;20235;-67
2022/09/29 08:14:02;;;;;;;4.95;3.88;;;;;;;15.37;41.24;99790.44;5040878;28;20434;-67
2022/09/29 08:16:31;;;;;;;5.40;4.32;;;;;;;15.27;41.45;99795.34;5037743;28;20050;-67
2022/09/29 08:18:59;;;;;;;6.65;4.00;;;;;;;15.19;40.89;99789.09;5041209;28;20045;-67
2022/09/29 08:21:28;;;;;;;5.03;4.03;;;;;;;15.09;41.21;99790.22;5040100;28;20128;-67
2022/09/29 08:23:56;;;;;;;5.28;3.80;;;;;;;15.01;41.29;99798.56;5044224;28;20045;-67
2022/09/29 08:26:24;;;;;;;5.28;3.75;;;;;;;14.93;41.65;99801.41;5042654;28;20415;-67
2022/09/29 08:29:10;;;;;;;6.20;3.80;;;;;;;14.87;41.81;99804.06;5040604;28;20042;-67
2022/09/29 08:31:43;;;;;;;5.70;3.78;;;;;;;14.79;41.74;99799.50;5032694;28;20053;-68
2022/09/29 08:34:12;;;;;;;4.85;3.88;;;;;;;14.74;41.94;99805.59;5031798;28;20064;-54
2022/09/29 08:36:42;;;;;;;5.10;3.50;;;;;;;14.71;42.47;99810.59;5047134;28;20073;-68
2022/09/29 08:39:10;;;;;;;4.70;3.53;;;;;;;14.70;42.30;99819.91;5041920;28;20128;-68
2022/09/29 08:41:50;;;;;;;5.05;3.72;;;;;;;14.70;41.74;99817.16;5036835;28;20043;-69
2022/09/29 08:44:28;;;;;;;6.15;4.13;;;;;;;14.68;42.04;99819.25;5031168;28;20401;-69
2022/09/29 08:47:14;;;;;;;5.78;3.83;;;;;;;14.67;42.27;99817.53;5029503;28;20042;-67
2022/09/29 08:49:46;;;;;;;5.78;4.47;;;;;;;14.65;42.77;99819.63;5030107;28;20120;-67
2022/09/29 08:52:18;;;;;;;5.97;4.43;;;;;;;14.63;42.48;99821.69;5030002;28;20049;-67
2022/09/29 08:54:49;;;;;;;6.63;4.55;;;;;;;14.62;42.84;99819.97;5027682;28;20517;-67
2022/09/29 08:57:19;;;;;;;5.95;4.15;;;;;;;14.63;42.35;99818.94;5040912;28;20394;-67
2022/09/29 08:59:53;;;;;;;5.68;4.20;;;;;;;14.63;42.74;99829.97;5050576;28;20037;-67
2022/09/29 09:02:58;;;;;;;6.45;4.70;;;;;;;14.62;42.55;99822.72;5048892;28;20135;-67
2022/09/29 09:05:54;;;;;;;5.25;3.85;;;;;;;14.64;42.29;99826.16;5043421;28;20052;-67
2022/09/29 09:08:40;;;;;;;5.57;4.20;;;;;;;14.68;42.39;99822.84;5039124;28;20060;-66
2022/09/29 09:11:26;;;;;;;5.95;4.65;;;;;;;14.72;42.62;99826.09;5038439;28;20476;-67
2022/09/29 09:14:07;;;;;;;5.35;3.92;;;;;;;14.76;42.84;99833.78;5035542;28;20078;-67
2022/09/29 09:16:47;;;;;;;6.75;4.30;;;;;;;14.80;42.52;99833.41;5040794;28;20136;-67
2022/09/29 09:19:36;;;;;;;6.20;4.82;;;;;;;14.83;42.41;99836.66;5048375;28;20079;-67
2022/09/29 09:22:14;;;;;;;6.30;4.85;;;;;;;14.85;41.70;99840.06;5043264;28;20143;-66
2022/09/29 09:24:48;;;;;;;5.57;4.35;;;;;;;14.89;42.00;99840.56;5039628;28;20552;-67
2022/09/29 09:27:23;;;;;;;6.38;4.32;;;;;;;14.91;41.85;99832.97;5042100;28;20053;-67
2022/09/29 09:30:04;;;;;;;6.03;4.30;;;;;;;14.92;41.31;99838.31;5042298;28;20107;-67
2022/09/29 09:32:42;;;;;;;6.00;4.30;;;;;;;14.95;41.47;99834.28;5035679;28;20055;-67
2022/09/29 09:35:27;;;;;;;8.13;4.82;;;;;;;14.95;41.13;99832.41;5047213;28;20138;-67
2022/09/29 09:38:00;;;;;;;5.75;4.32;;;;;;;14.98;41.28;99834.78;5037869;28;20104;-67
2022/09/29 09:40:34;;;;;;;6.82;4.53;;;;;;;15.01;42.29;99839.91;5046143;28;20047;-67
2022/09/29 09:43:09;;;;;;;8.50;4.97;;;;;;;15.06;42.03;99828.34;5045473;28;20112;-67
2022/09/29 09:45:42;;;;;;;4.88;4.07;;;;;;;15.11;42.49;99836.88;5047915;28;20041;-67
2022/09/29 09:48:16;;;;;;;5.30;3.85;;;;;;;15.18;41.99;99840.59;5045409;28;20161;-66
2022/09/29 09:50:50;;;;;;;5.82;4.43;;;;;;;15.22;42.79;99839.19;5019885;28;20045;-67
2022/09/29 09:53:24;;;;;;;6.13;4.25;;;;;;;15.32;42.23;99837.00;5039097;28;20117;-67
2022/09/29 09:56:02;;;;;;;6.18;4.32;;;;;;;15.41;42.21;99840.56;5048755;28;20138;-66
2022/09/29 09:58:59;;;;;;;5.90;3.95;;;;;;;15.49;41.91;99845.97;5036950;28;20041;-67
2022/09/29 10:01:27;;;;;;;6.22;3.95;;;;;;;15.59;42.12;99845.69;5045694;28;20047;-67
2022/09/29 10:03:59;;;;;;;8.18;4.85;;;;;;;15.70;41.59;99845.19;5038595;28;20041;-67
2022/09/29 10:06:28;;;;;;;6.45;4.45;;;;;;;15.74;41.95;99836.34;5044784;28;20075;-67
2022/09/29 10:08:55;;;;;;;6.68;4.82;;;;;;;15.86;41.64;99837.53;5039832;28;20179;-67
2022/09/29 10:11:25;;;;;;;5.50;4.25;;;;;;;15.96;41.62;99840.00;5034684;28;20128;-67
2022/09/29 10:14:00;;;;;;;6.53;4.32;;;;;;;16.05;40.49;99836.06;5047417;28;20497;-66
2022/09/29 10:16:33;;;;;;;7.07;4.20;;;;;;;16.13;41.20;99849.75;5048075;28;20047;-67
2022/09/29 10:19:05;;;;;;;5.65;4.32;;;;;;;16.21;41.58;99840.53;5032004;28;20383;-67
2022/09/29 10:21:37;;;;;;;6.13;4.15;;;;;;;16.31;40.57;99842.97;5018254;28;20053;-67
2022/09/29 10:24:08;;;;;;;6.30;3.80;;;;;;;16.34;41.28;99842.56;5045765;28;20037;-67
2022/09/29 10:26:39;;;;;;;5.40;4.07;;;;;;;16.44;41.01;99840.34;5041728;28;20057;-67
2022/09/29 10:29:22;;;;;;;6.15;4.15;;;;;;;16.52;39.96;99843.81;5048687;28;20041;-67
2022/09/29 10:32:02;;;;;;;6.82;4.10;;;;;;;16.58;39.13;99847.69;5035894;28;20131;-67
2022/09/29 10:34:33;;;;;;;6.07;3.53;;;;;;;16.64;39.77;99846.91;5044741;28;20397;-67
2022/09/29 10:37:03;;;;;;;5.22;3.60;;;;;;;16.69;39.93;99849.94;5047147;28;20556;-67
2022/09/29 10:39:49;;;;;;;6.03;3.47;;;;;;;16.72;38.65;99849.53;5047685;28;20042;-67
2022/09/29 10:42:22;;;;;;;5.30;3.67;;;;;;;16.77;39.21;99855.31;5046718;28;20064;-67
2022/09/29 10:44:52;;;;;;;6.80;4.18;;;;;;;16.80;39.15;99854.06;5047777;28;20501;-67
2022/09/29 10:47:22;;;;;;;6.50;3.70;;;;;;;16.85;39.25;99849.66;5047196;28;20071;-67
2022/09/29 10:50:13;;;;;;;5.28;3.50;;;;;;;16.90;38.39;99860.13;5037100;28;20037;-68
2022/09/29 10:52:43;;;;;;;6.80;3.78;;;;;;;16.94;39.38;99855.88;5037989;28;20509;-68
2022/09/29 10:55:18;;;;;;;4.95;3.45;;;;;;;16.99;38.11;99853.41;5041866;28;20045;-69
2022/09/29 10:57:47;;;;;;;5.72;3.70;;;;;;;17.04;39.11;99861.09;5043127;28;20041;-68
2022/09/29 11:00:30;;;;;;;7.07;4.40;;;;;;;17.09;37.14;99862.19;5040741;28;20045;-68
2022/09/29 11:03:04;;;;;;;4.45;3.50;;;;;;;17.10;37.04;99855.63;5045340;28;20072;-68
2022/09/29 11:05:35;;;;;;;5.50;3.28;;;;;;;17.13;37.74;99857.13;5042237;28;20045;-68
2022/09/29 11:08:03;;;;;;;6.32;3.92;;;;;;;17.13;37.96;99868.19;5046479;28;20036;-68
2022/09/29 11:10:34;;;;;;;5.60;3.60;;;;;;;17.16;37.80;99865.00;5025568;28;20056;-67
2022/09/29 11:13:37;;;;;;;5.47;3.85;;;;;;;17.12;36.58;99864.56;5029731;28;20045;-68
2022/09/29 11:16:14;;;;;;;5.38;2.92;;;;;;;17.18;36.89;99869.28;5037013;28;20522;-68
2022/09/29 11:18:44;;;;;;;5.40;2.92;;;;;;;17.21;37.35;99862.50;5042143;28;20037;-68
2022/09/29 11:21:53;;;;;;;3.95;2.67;;;;;;;17.22;36.54;99867.00;5042739;28;20057;-68
2022/09/29 11:24:34;;;;;;;5.03;2.75;;;;;;;17.28;36.13;99871.72;5019957;28;20037;-68
2022/09/29 11:27:13;;;;;;;4.80;3.00;;;;;;;17.32;36.14;99868.31;5036087;28;20091;-68
2022/09/29 11:29:50;;;;;;;5.38;3.22;;;;;;;17.36;36.50;99874.31;5043421;28;20379;-68
2022/09/29 11:32:33;;;;;;;5.53;3.42;;;;;;;17.40;35.43;99873.69;5038550;28;20501;-68
2022/09/29 11:35:26;;;;;;;4.65;3.15;;;;;;;17.41;34.92;99874.56;5039174;28;20048;-68
2022/09/29 11:38:08;;;;;;;5.35;3.17;;;;;;;17.38;35.23;99872.22;5038128;28;20140;-68
2022/09/29 11:40:47;;;;;;;5.57;2.90;;;;;;;17.37;35.30;99874.13;5036492;28;20095;-69
2022/09/29 11:43:30;;;;;;;4.47;3.10;;;;;;;17.35;34.99;99869.84;5043384;28;20061;-68
2022/09/29 11:46:12;;;;;;;4.32;2.60;;;;;;;17.31;35.08;99874.94;5030800;28;20045;-69
2022/09/29 11:48:55;;;;;;;4.38;2.22;;;;;;;17.26;34.42;99882.97;5038070;28;20151;-69
2022/09/29 11:51:32;;;;;;;4.22;2.85;;;;;;;17.20;35.12;99877.38;5043802;28;20048;-68
2022/09/29 11:54:22;;;;;;;4.63;2.85;;;;;;;17.15;34.43;99879.91;5041560;28;20041;-69
2022/09/29 11:56:58;;;;;;;4.88;3.17;;;;;;;17.10;35.08;99869.44;5045946;28;20052;-68
2022/09/29 11:59:44;;;;;;;3.47;2.25;;;;;;;17.05;33.78;99880.25;5047159;28;20500;-69
2022/09/29 12:02:39;;;;;;;4.25;2.38;;;;;;;16.96;34.42;99876.75;5051958;28;20514;-69
2022/09/29 12:05:16;;;;;;;3.78;2.20;;;;;;;16.92;34.71;99869.91;5032895;28;20046;-68
2022/09/29 12:07:56;;;;;;;3.72;2.15;;;;;;;16.89;34.72;99875.00;5031066;28;20053;-68